• Join FlightAware (Why Join?)
  • Login
  • US Flag 
10:41PM EDT


 

Airport Tracker/Info


-or-


 

Live Flight TrackerFlight Track Log ✈ AAL297 ✈ 26-Apr-2013 ✈ KLAX - PHNL

Flight Track Log - Related Links

Times and Time Zones

All times are in EDT time to prevent confusion due to time zone crossing. See the AAL297 flight status page for this flight to view local times or setup timezone preferences in your user account.

Time Position Orientation Groundspeed Altitude Reporting Facility
EDT Latitude Longitude Course Direction KTS MPH feet Rate Location/Type
08:45PM 33.9300 -118.4690 261° West 224 258 2,800  Level FlightAware
08:45PM 33.9270 -118.4970 263° West 253 291 3,500 2,160 Climbing FlightAware
08:46PM 33.9220 -118.5420 262° West 268 308 4,800 2,820 Climbing FlightAware
08:46PM 33.9190 -118.5840 265° West 275 316 6,100 2,940 Climbing FlightAware
08:47PM 33.9140 -118.6320 263° West 285 328 7,500 2,580 Climbing FlightAware
08:47PM 33.9110 -118.6680 264° West 292 336 8,500 2,580 Climbing FlightAware
08:48PM 33.9060 -118.7180 263° West 298 343 9,900 1,920 Climbing FlightAware
08:48PM 33.8990 -118.7870 263° West 339 390 10,800 1,620 Climbing FlightAware
08:49PM 33.8900 -118.8790 263° West 368 423 12,200 2,220 Climbing FlightAware
08:50PM 33.8810 -118.9580 262° West 372 428 14,000 2,580 Climbing FlightAware
08:50PM 33.8720 -119.0440 263° West 377 434 15,700 1,500 Climbing FlightAware
08:51PM 33.8620 -119.1360 263° West 378 435 16,300 2,040 Climbing FlightAware
08:52PM 33.8530 -119.2270 263° West 395 455 18,800 2,880 Climbing FlightAware
08:52PM 33.8450 -119.3180 264° West 404 465 20,200 1,920 Climbing FlightAware
08:53PM 33.8350 -119.4170 263° West 410 472 21,600 1,800 Climbing FlightAware
08:54PM 33.8280 -119.4880 263° West 415 478 22,500 1,860 Climbing FlightAware
08:55PM 33.8150 -119.6200 263° West 428 493 24,300 1,320 Climbing FlightAware
08:55PM 33.8070 -119.7050 264° West 435 501 24,600 180 Climbing FlightAware
08:56PM 33.7980 -119.7870 262° West 435 501 24,600  Level FlightAware
08:57PM 33.7900 -119.8690 263° West 435 501 24,600 3,360 Level FlightAware
08:57PM 33.7760 -120.0140 263° West 462 532 29,100 3,300 Climbing FlightAware
08:58PM 33.7610 -120.1470 262° West 465 535 29,900 2,040 Climbing FlightAware
08:59PM 33.7480 -120.2820 263° West 460 529 32,700 2,820 Climbing FlightAware
09:00PM 33.7380 -120.3830 263° West 444 511 34,200 2,100 Climbing FlightAware
09:00PM 33.7280 -120.4780 263° West 435 501 35,500 900 Climbing FlightAware
09:01PM 33.7170 -120.5720 262° West 435 501 35,500  Level FlightAware
09:02PM 33.7070 -120.6530 262° West 435 501 35,500  Level FlightAware
09:02PM 33.6980 -120.7350 263° West 435 501 35,500 2,220 Level FlightAware
09:03PM 33.6850 -120.8700 263° West 422 486 38,700 2,460 Climbing FlightAware
09:04PM 33.6710 -120.9980 263° West 420 483 39,600 540 Climbing FlightAware
09:05PM 33.6620 -121.0760 262° West 420 483 39,600  Level FlightAware
09:05PM 33.6530 -121.1550 262° West 420 483 39,600  Level FlightAware
09:06PM 33.6410 -121.2530 262° West 420 483 39,600  Level FlightAware
09:07PM 33.6320 -121.3320 262° West 420 483 39,600  Level FlightAware
09:08PM 33.6230 -121.4100 262° West 420 483 39,600  Level FlightAware
09:08PM 33.6140 -121.4890 262° West 420 483 39,600  Level FlightAware
09:09PM 33.6040 -121.5670 261° West 420 483 39,600  Level FlightAware
09:10PM 33.5930 -121.6650 262° West 420 483 39,600  Level FlightAware
09:10PM 33.5840 -121.7440 262° West 420 483 39,600  Level FlightAware
09:11PM 33.5740 -121.8220 261° West 420 483 39,600  Level FlightAware
09:12PM 33.5650 -121.9010 262° West 420 483 39,600  Level FlightAware
09:12PM 33.5560 -121.9790 262° West 420 483 39,600  Level FlightAware
09:13PM 33.5440 -122.0780 262° West 420 483 39,600 180 Level FlightAware
09:14PM 33.5008 -122.4367 262° West 417 480 40,000  Climbing Los Angeles Center
09:16PM 33.4666 -122.5834 258° West  Level FlightAware Approximate
09:23PM 33.2757 -123.5476 256° West  Level FlightAware Approximate
09:24PM 33.2457 -123.6844 255° West  Level FlightAware Approximate
09:25PM 33.2156 -123.8211 255° West  Level FlightAware Approximate
09:26PM 33.1853 -123.9577 255° West  Level FlightAware Approximate
09:27PM 33.1561 -124.0946 256° West  Level FlightAware Approximate
09:28PM 33.1268 -124.2314 256° West  Level FlightAware Approximate
09:29PM 33.0974 -124.3682 256° West  Level FlightAware Approximate
09:30PM 33.0667 -124.5017 270° West  Level FlightAware Approximate
09:30PM 33.0667 -124.5167 255° West 426 490 40,000  Level Oakland Oceanic (ODAPS)
09:31PM 33.0394 -124.6385 255° West  Level FlightAware Approximate
09:32PM 33.0088 -124.7747 255° West  Level FlightAware Approximate
09:33PM 32.9781 -124.9109 255° West  Level FlightAware Approximate
09:34PM 32.9472 -125.0469 255° West  Level FlightAware Approximate
09:35PM 32.9161 -125.1828 255° West  Level FlightAware Approximate
09:36PM 32.8815 -125.3336 255° West 426 490 40,000  Level FlightAware Transoceanic
09:37PM 32.8501 -125.4695 255° West 426 490 40,000  Level FlightAware Transoceanic
09:38PM 32.8186 -125.6052 255° West 426 490 40,000  Level FlightAware Transoceanic
09:39PM 32.7869 -125.7408 254° West 426 490 40,000  Level FlightAware Transoceanic
09:40PM 32.7551 -125.8764 254° West 426 490 40,000  Level FlightAware Transoceanic
09:41PM 32.7231 -126.0118 254° West 426 490 40,000  Level FlightAware Transoceanic
09:42PM 32.6910 -126.1471 254° West 426 490 40,000  Level FlightAware Transoceanic
09:43PM 32.6587 -126.2824 254° West 426 490 40,000  Level FlightAware Transoceanic
09:44PM 32.6263 -126.4175 254° West 426 490 40,000  Level FlightAware Transoceanic
09:45PM 32.5938 -126.5526 254° West 426 490 40,000  Level FlightAware Transoceanic
09:46PM 32.5611 -126.6875 254° West 426 490 40,000  Level FlightAware Transoceanic
09:47PM 32.5282 -126.8224 254° West 426 490 40,000  Level FlightAware Transoceanic
09:48PM 32.4953 -126.9571 254° West 426 490 40,000  Level FlightAware Transoceanic
09:49PM 32.4621 -127.0918 254° West 426 490 40,000  Level FlightAware Transoceanic
09:50PM 32.4289 -127.2263 254° West 426 490 40,000  Level FlightAware Transoceanic
09:51PM 32.3955 -127.3608 254° West 426 490 40,000  Level FlightAware Transoceanic
09:52PM 32.3619 -127.4952 253° West 426 490 40,000  Level FlightAware Transoceanic
09:53PM 32.3282 -127.6294 253° West 426 490 40,000  Level FlightAware Transoceanic
09:54PM 32.2944 -127.7636 253° West 426 490 40,000  Level FlightAware Transoceanic
09:55PM 32.2604 -127.8976 253° West 426 490 40,000  Level FlightAware Transoceanic
09:56PM 32.2263 -128.0316 253° West 426 490 40,000  Level FlightAware Transoceanic
09:57PM 32.1920 -128.1655 253° West 426 490 40,000  Level FlightAware Transoceanic
09:58PM 32.1576 -128.2992 253° West 426 490 40,000  Level FlightAware Transoceanic
09:59PM 32.1231 -128.4328 253° West 426 490 40,000  Level FlightAware Transoceanic
10:00PM 32.0884 -128.5664 253° West 426 490 40,000  Level FlightAware Transoceanic
10:01PM 32.0536 -128.6998 253° West 426 490 40,000  Level FlightAware Transoceanic
10:02PM 32.0186 -128.8332 253° West 426 490 40,000  Level FlightAware Transoceanic
10:03PM 31.9835 -128.9664 253° West 426 490 40,000  Level FlightAware Transoceanic
10:04PM 31.9482 -129.0996 253° West 426 490 40,000  Level FlightAware Transoceanic
10:05PM 31.9129 -129.2326 253° West 426 490 40,000  Level FlightAware Transoceanic
10:06PM 31.8774 -129.3656 252° West 426 490 40,000  Level FlightAware Transoceanic
10:07PM 31.8417 -129.4984 252° West 426 490 40,000  Level FlightAware Transoceanic
10:08PM 31.8059 -129.6311 252° West 426 490 40,000  Level FlightAware Transoceanic
10:09PM 31.7700 -129.7638 252° West 426 490 40,000  Level FlightAware Transoceanic
10:10PM 31.7339 -129.8963 252° West 426 490 40,000  Level FlightAware Transoceanic
10:11PM 31.6977 -130.0287 252° West 426 490 40,000  Level FlightAware Transoceanic
10:12PM 31.6614 -130.1611 252° West 426 490 40,000  Level FlightAware Transoceanic
10:13PM 31.6249 -130.2933 252° West 426 490 40,000  Level FlightAware Transoceanic
10:14PM 31.5883 -130.4254 252° West 426 490 40,000  Level FlightAware Transoceanic
10:15PM 31.5515 -130.5574 252° West 426 490 40,000  Level FlightAware Transoceanic
10:16PM 31.5146 -130.6893 252° West 426 490 40,000  Level FlightAware Transoceanic
10:17PM 31.4776 -130.8211 252° West 426 490 40,000  Level FlightAware Transoceanic
10:18PM 31.4404 -130.9528 252° West 426 490 40,000  Level FlightAware Transoceanic
10:19PM 31.4032 -131.0844 252° West 426 490 40,000  Level FlightAware Transoceanic
10:20PM 31.3657 -131.2159 252° West 426 490 40,000  Level FlightAware Transoceanic
10:21PM 31.3282 -131.3472 251° West 426 490 40,000  Level FlightAware Transoceanic
10:22PM 31.2905 -131.4785 251° West 426 490 40,000  Level FlightAware Transoceanic
10:23PM 31.2526 -131.6097 251° West 426 490 40,000  Level FlightAware Transoceanic
10:24PM 31.2147 -131.7408 251° West 426 490 40,000  Level FlightAware Transoceanic
10:25PM 31.1766 -131.8717 251° West 426 490 40,000  Level FlightAware Transoceanic
10:26PM 31.1384 -132.0026 251° West 426 490 40,000  Level FlightAware Transoceanic
10:27PM 31.1000 -132.1333 251° West 426 490 40,000  Level FlightAware Transoceanic
10:28PM 31.0600 -132.2692 251° West 426 490 40,000  Level FlightAware Transoceanic
10:28PM 31.1000 -132.1333 251° West 443 510 40,000  Level Oakland Oceanic (ODAPS)
10:29PM 31.0199 -132.4049 251° West 426 490 40,000  Level FlightAware Transoceanic
10:30PM 30.9797 -132.5405 251° West 426 490 40,000  Level FlightAware Transoceanic
10:31PM 30.9393 -132.6761 251° West 426 490 40,000  Level FlightAware Transoceanic
10:32PM 30.8988 -132.8115 251° West 426 490 40,000  Level FlightAware Transoceanic
10:33PM 30.8581 -132.9467 251° West 426 490 40,000  Level FlightAware Transoceanic
10:34PM 30.8173 -133.0819 251° West 426 490 40,000  Level FlightAware Transoceanic
10:35PM 30.7763 -133.2170 251° West 443 510 40,000  Level FlightAware Transoceanic
10:36PM 30.7353 -133.3519 250° West 443 510 40,000  Level FlightAware Transoceanic
10:37PM 30.6940 -133.4867 250° West 443 510 40,000  Level FlightAware Transoceanic
10:38PM 30.6527 -133.6214 250° West 443 510 40,000  Level FlightAware Transoceanic
10:39PM 30.6112 -133.7560 250° West 443 510 40,000  Level FlightAware Transoceanic
10:40PM 30.5695 -133.8905 250° West 443 510 40,000  Level FlightAware Transoceanic
10:41PM 30.5277 -134.0249 250° West 443 510 40,000  Level FlightAware Transoceanic
10:42PM 30.4858 -134.1591 250° West 443 510 40,000  Level FlightAware Transoceanic
10:43PM 30.4437 -134.2932 250° West 443 510 40,000  Level FlightAware Transoceanic
10:44PM 30.4015 -134.4272 250° West 443 510 40,000  Level FlightAware Transoceanic
10:45PM 30.3592 -134.5611 250° West 443 510 40,000  Level FlightAware Transoceanic
10:46PM 30.3167 -134.6949 250° West 443 510 40,000  Level FlightAware Transoceanic
10:47PM 30.2741 -134.8286 250° West 443 510 40,000  Level FlightAware Transoceanic
10:48PM 30.2314 -134.9621 250° West 443 510 40,000  Level FlightAware Transoceanic
10:49PM 30.1885 -135.0956 250° West 443 510 40,000  Level FlightAware Transoceanic
10:50PM 30.1455 -135.2289 250° West 443 510 40,000  Level FlightAware Transoceanic
10:51PM 30.1024 -135.3621 249° West 443 510 40,000  Level FlightAware Transoceanic
10:52PM 30.0591 -135.4952 249° West 443 510 40,000  Level FlightAware Transoceanic
10:53PM 30.0157 -135.6281 249° West 443 510 40,000  Level FlightAware Transoceanic
10:54PM 29.9721 -135.7610 249° West 443 510 40,000  Level FlightAware Transoceanic
10:55PM 29.9284 -135.8937 249° West 443 510 40,000  Level FlightAware Transoceanic
10:56PM 29.8846 -136.0263 249° West 443 510 40,000  Level FlightAware Transoceanic
10:57PM 29.8407 -136.1588 249° West 443 510 40,000  Level FlightAware Transoceanic
10:58PM 29.7966 -136.2912 249° West 443 510 40,000  Level FlightAware Transoceanic
10:59PM 29.7524 -136.4235 249° West 443 510 40,000  Level FlightAware Transoceanic
11:00PM 29.7080 -136.5556 249° West 443 510 40,000  Level FlightAware Transoceanic
11:01PM 29.6636 -136.6877 249° West 443 510 40,000  Level FlightAware Transoceanic
11:02PM 29.6190 -136.8196 249° West 443 510 40,000  Level FlightAware Transoceanic
11:03PM 29.5742 -136.9514 249° West 443 510 40,000  Level FlightAware Transoceanic
11:04PM 29.5294 -137.0831 249° West 443 510 40,000  Level FlightAware Transoceanic
11:05PM 29.4844 -137.2146 249° West 443 510 40,000  Level FlightAware Transoceanic
11:06PM 29.4393 -137.3461 248° West 443 510 40,000  Level FlightAware Transoceanic
11:07PM 29.3940 -137.4774 248° West 443 510 40,000  Level FlightAware Transoceanic
11:08PM 29.3486 -137.6086 248° West 443 510 40,000  Level FlightAware Transoceanic
11:09PM 29.3031 -137.7397 248° West 443 510 40,000  Level FlightAware Transoceanic
11:10PM 29.2575 -137.8707 248° West 443 510 40,000  Level FlightAware Transoceanic
11:11PM 29.2117 -138.0016 248° West 443 510 40,000  Level FlightAware Transoceanic
11:12PM 29.1658 -138.1323 248° West 443 510 40,000  Level FlightAware Transoceanic
11:13PM 29.1198 -138.2629 248° West 443 510 40,000  Level FlightAware Transoceanic
11:14PM 29.0737 -138.3934 248° West 443 510 40,000  Level FlightAware Transoceanic
11:15PM 29.0274 -138.5238 248° West 443 510 40,000  Level FlightAware Transoceanic
11:16PM 28.9810 -138.6541 248° West 443 510 40,000  Level FlightAware Transoceanic
11:17PM 28.9345 -138.7843 248° West 443 510 40,000  Level FlightAware Transoceanic
11:18PM 28.8878 -138.9143 248° West 443 510 40,000  Level FlightAware Transoceanic
11:19PM 28.8411 -139.0443 248° West 443 510 40,000  Level FlightAware Transoceanic
11:20PM 28.7942 -139.1741 248° West 443 510 40,000  Level FlightAware Transoceanic
11:21PM 28.7471 -139.3038 247° West 443 510 40,000  Level FlightAware Transoceanic
11:22PM 28.7000 -139.4333 247° West 443 510 40,000  Level FlightAware Transoceanic
11:23PM 28.6512 -139.5659 247° West 443 510 40,000  Level FlightAware Transoceanic
11:24PM 28.6023 -139.6984 247° West 443 510 40,000  Level FlightAware Transoceanic
11:24PM 28.7000 -139.4333 247° West 438 504 40,000  Level Oakland Oceanic (ODAPS)
11:25PM 28.5532 -139.8308 247° West 443 510 40,000  Level FlightAware Transoceanic
11:26PM 28.5040 -139.9630 247° West 443 510 40,000  Level FlightAware Transoceanic
11:27PM 28.4547 -140.0951 247° West 443 510 40,000  Level FlightAware Transoceanic
11:28PM 28.4053 -140.2271 247° West 443 510 40,000  Level FlightAware Transoceanic
11:29PM 28.3557 -140.3590 247° West 443 510 40,000  Level FlightAware Transoceanic
11:30PM 28.3686 -140.3248 247° West 438 504 40,000  Level FlightAware Transoceanic
11:31PM 28.3208 -140.4517 247° West 438 504 40,000  Level FlightAware Transoceanic
11:32PM 28.2729 -140.5785 247° West 438 504 40,000  Level FlightAware Transoceanic
11:33PM 28.2248 -140.7052 247° West 438 504 40,000  Level FlightAware Transoceanic
11:34PM 28.1766 -140.8317 247° West 438 504 40,000  Level FlightAware Transoceanic
11:35PM 28.1284 -140.9581 247° West 438 504 40,000  Level FlightAware Transoceanic
11:36PM 28.0800 -141.0845 246° West 438 504 40,000  Level FlightAware Transoceanic
11:37PM 28.0314 -141.2107 246° West 438 504 40,000  Level FlightAware Transoceanic
11:38PM 27.9828 -141.3368 246° West 438 504 40,000  Level FlightAware Transoceanic
11:39PM 27.9341 -141.4628 246° West 438 504 40,000  Level FlightAware Transoceanic
11:40PM 27.8852 -141.5886 246° West 438 504 40,000  Level FlightAware Transoceanic
11:41PM 27.8362 -141.7144 246° West 438 504 40,000  Level FlightAware Transoceanic
11:42PM 27.7871 -141.8400 246° West 438 504 40,000  Level FlightAware Transoceanic
11:43PM 27.7379 -141.9656 246° West 438 504 40,000  Level FlightAware Transoceanic
11:44PM 27.6886 -142.0910 246° West 438 504 40,000  Level FlightAware Transoceanic
11:45PM 27.6392 -142.2163 246° West 438 504 40,000  Level FlightAware Transoceanic
11:46PM 27.5897 -142.3415 246° West 438 504 40,000  Level FlightAware Transoceanic
11:47PM 27.5400 -142.4665 246° West 438 504 40,000  Level FlightAware Transoceanic
11:48PM 27.4903 -142.5915 246° West 438 504 40,000  Level FlightAware Transoceanic
11:49PM 27.4404 -142.7164 246° West 438 504 40,000  Level FlightAware Transoceanic
11:50PM 27.3904 -142.8411 246° West 438 504 40,000  Level FlightAware Transoceanic
11:51PM 27.3403 -142.9657 246° West 438 504 40,000  Level FlightAware Transoceanic
11:52PM 27.2901 -143.0902 246° West 438 504 40,000  Level FlightAware Transoceanic
11:53PM 27.2398 -143.2146 246° West 438 504 40,000  Level FlightAware Transoceanic
11:54PM 27.1894 -143.3389 245° Southwest 438 504 40,000  Level FlightAware Transoceanic
11:55PM 27.1388 -143.4631 245° Southwest 438 504 40,000  Level FlightAware Transoceanic
11:56PM 27.0882 -143.5871 245° Southwest 438 504 40,000  Level FlightAware Transoceanic
11:57PM 27.0374 -143.7111 245° Southwest 438 504 40,000  Level FlightAware Transoceanic
11:58PM 26.9865 -143.8349 245° Southwest 438 504 40,000  Level FlightAware Transoceanic
11:59PM 26.9356 -143.9586 245° Southwest 438 504 40,000  Level FlightAware Transoceanic
12:00AM 26.8845 -144.0823 245° Southwest 438 504 40,000  Level FlightAware Transoceanic
12:01AM 26.8333 -144.2058 245° Southwest 438 504 40,000  Level FlightAware Transoceanic
12:02AM 26.7820 -144.3291 245° Southwest 438 504 40,000  Level FlightAware Transoceanic
12:03AM 26.7306 -144.4524 245° Southwest 438 504 40,000  Level FlightAware Transoceanic
12:04AM 26.6791 -144.5756 245° Southwest 438 504 40,000  Level FlightAware Transoceanic
12:05AM 26.6275 -144.6987 245° Southwest 438 504 40,000  Level FlightAware Transoceanic
12:06AM 26.5758 -144.8216 245° Southwest 438 504 40,000  Level FlightAware Transoceanic
12:07AM 26.5240 -144.9444 245° Southwest 438 504 40,000  Level FlightAware Transoceanic
12:08AM 26.4720 -145.0672 245° Southwest 438 504 40,000  Level FlightAware Transoceanic
12:09AM 26.4200 -145.1898 245° Southwest 438 504 40,000  Level FlightAware Transoceanic
12:10AM 26.3679 -145.3123 245° Southwest 438 504 40,000  Level FlightAware Transoceanic
12:11AM 26.3156 -145.4346 245° Southwest 438 504 40,000  Level FlightAware Transoceanic
12:12AM 26.2633 -145.5569 244° Southwest 438 504 40,000  Level FlightAware Transoceanic
12:13AM 26.2108 -145.6791 244° Southwest 438 504 40,000  Level FlightAware Transoceanic
12:14AM 26.1583 -145.8011 244° Southwest 438 504 40,000  Level FlightAware Transoceanic
12:15AM 26.1056 -145.9231 244° Southwest 438 504 40,000  Level FlightAware Transoceanic
12:16AM 26.0529 -146.0449 244° Southwest 438 504 40,000  Level FlightAware Transoceanic
12:17AM 26.0000 -146.1667 244° Southwest 438 504 40,000  Level FlightAware Transoceanic
12:18AM 25.9453 -146.2930 244° Southwest 438 504 40,000  Level FlightAware Transoceanic
12:18AM 26.0000 -146.1667 244° Southwest 445 512 40,000  Level Oakland Oceanic (ODAPS)
12:19AM 25.8904 -146.4192 244° Southwest 438 504 40,000  Level FlightAware Transoceanic
12:20AM 25.8355 -146.5453 244° Southwest 438 504 40,000  Level FlightAware Transoceanic
12:21AM 25.7804 -146.6712 244° Southwest 438 504 40,000  Level FlightAware Transoceanic
12:22AM 25.7252 -146.7971 244° Southwest 438 504 40,000  Level FlightAware Transoceanic
12:23AM 25.6700 -146.9228 244° Southwest 438 504 40,000  Level FlightAware Transoceanic
12:24AM 25.5675 -147.1550 244° Southwest 445 512 40,000  Level FlightAware Transoceanic
12:25AM 25.5129 -147.2780 244° Southwest 445 512 40,000  Level FlightAware Transoceanic
12:26AM 25.4583 -147.4009 244° Southwest 445 512 40,000  Level FlightAware Transoceanic
12:27AM 25.4035 -147.5237 244° Southwest 445 512 40,000  Level FlightAware Transoceanic
12:28AM 25.3487 -147.6464 244° Southwest 445 512 40,000  Level FlightAware Transoceanic
12:29AM 25.2938 -147.7690 244° Southwest 445 512 40,000  Level FlightAware Transoceanic
12:30AM 25.2387 -147.8915 244° Southwest 445 512 40,000  Level FlightAware Transoceanic
12:31AM 25.1836 -148.0139 243° Southwest 445 512 40,000  Level FlightAware Transoceanic
12:32AM 25.1283 -148.1361 243° Southwest 445 512 40,000  Level FlightAware Transoceanic
12:33AM 25.0730 -148.2583 243° Southwest 445 512 40,000  Level FlightAware Transoceanic
12:34AM 25.0175 -148.3803 243° Southwest 445 512 40,000  Level FlightAware Transoceanic
12:35AM 24.9620 -148.5022 243° Southwest 445 512 40,000  Level FlightAware Transoceanic
12:36AM 24.9063 -148.6240 243° Southwest 445 512 40,000  Level FlightAware Transoceanic
12:37AM 24.8506 -148.7457 243° Southwest 445 512 40,000  Level FlightAware Transoceanic
12:38AM 24.7948 -148.8673 243° Southwest 445 512 40,000  Level FlightAware Transoceanic
12:39AM 24.7388 -148.9888 243° Southwest 445 512 40,000  Level FlightAware Transoceanic
12:40AM 24.6828 -149.1102 243° Southwest 445 512 40,000  Level FlightAware Transoceanic
12:41AM 24.6266 -149.2314 243° Southwest 445 512 40,000  Level FlightAware Transoceanic
12:42AM 24.5704 -149.3526 243° Southwest 445 512 40,000  Level FlightAware Transoceanic
12:43AM 24.5141 -149.4736 243° Southwest 445 512 40,000  Level FlightAware Transoceanic
12:44AM 24.4577 -149.5946 243° Southwest 445 512 40,000  Level FlightAware Transoceanic
12:45AM 24.4011 -149.7154 243° Southwest 445 512 40,000  Level FlightAware Transoceanic
12:46AM 24.3445 -149.8361 243° Southwest 445 512 40,000  Level FlightAware Transoceanic
12:47AM 24.2878 -149.9567 243° Southwest 445 512 40,000  Level FlightAware Transoceanic
12:48AM 24.2310 -150.0773 243° Southwest 445 512 40,000  Level FlightAware Transoceanic
12:49AM 24.1741 -150.1976 243° Southwest 445 512 40,000  Level FlightAware Transoceanic
12:50AM 24.1171 -150.3179 243° Southwest 445 512 40,000  Level FlightAware Transoceanic
12:51AM 24.0600 -150.4381 242° Southwest 445 512 40,000  Level FlightAware Transoceanic
12:52AM 24.0028 -150.5582 242° Southwest 445 512 40,000  Level FlightAware Transoceanic
12:53AM 23.9456 -150.6782 242° Southwest 445 512 40,000  Level FlightAware Transoceanic
12:54AM 23.8882 -150.7980 242° Southwest 445 512 40,000  Level FlightAware Transoceanic
12:55AM 23.8307 -150.9178 242° Southwest 445 512 40,000  Level FlightAware Transoceanic
12:56AM 23.7732 -151.0374 242° Southwest 445 512 40,000  Level FlightAware Transoceanic
12:57AM 23.7155 -151.1570 242° Southwest 445 512 40,000  Level FlightAware Transoceanic
12:58AM 23.6578 -151.2764 242° Southwest 445 512 40,000  Level FlightAware Transoceanic
12:59AM 23.5999 -151.3958 242° Southwest 445 512 40,000  Level FlightAware Transoceanic
01:00AM 23.5420 -151.5150 242° Southwest 445 512 40,000  Level FlightAware Transoceanic
01:01AM 23.4840 -151.6341 242° Southwest 445 512 40,000  Level FlightAware Transoceanic
01:02AM 23.4259 -151.7531 242° Southwest 445 512 40,000  Level FlightAware Transoceanic
01:03AM 23.3677 -151.8720 242° Southwest 445 512 40,000  Level FlightAware Transoceanic
01:04AM 23.3094 -151.9908 242° Southwest 445 512 40,000  Level FlightAware Transoceanic
01:05AM 23.2511 -152.1095 242° Southwest 445 512 40,000  Level FlightAware Transoceanic
01:06AM 23.1926 -152.2281 242° Southwest 445 512 40,000  Level FlightAware Transoceanic
01:07AM 23.1340 -152.3466 242° Southwest 445 512 40,000  Level FlightAware Transoceanic
01:08AM 23.0754 -152.4650 242° Southwest 445 512 40,000  Level FlightAware Transoceanic
01:09AM 23.0167 -152.5833 242° Southwest 445 512 40,000  Level FlightAware Transoceanic
01:10AM 22.9580 -152.7020 242° Southwest 445 512 40,000  Level FlightAware Transoceanic
01:11AM 22.8993 -152.8206 242° Southwest 445 512 40,000  Level FlightAware Transoceanic
01:11AM 22.9333 -152.7500 241° Southwest 440 506 40,000  Level Honolulu Center
01:12AM 22.8404 -152.9391 242° Southwest 445 512 40,000  Level FlightAware Transoceanic
01:12AM 22.8667 -152.8667 238° Southwest 440 506 40,000  Level Honolulu Center
01:13AM 22.7815 -153.0575 242° Southwest 445 512 40,000  Level FlightAware Transoceanic
01:13AM 22.8167 -152.9833 245° Southwest 440 506 40,000  Level Honolulu Center
01:14AM 22.7225 -153.1758 242° Southwest 445 512 40,000  Level FlightAware Transoceanic
01:14AM 22.7833 -153.1167 255° West 430 495 40,000  Level Honolulu Center
01:15AM 22.6634 -153.2939 242° Southwest 445 512 40,000  Level FlightAware Transoceanic
01:15AM 22.7500 -153.2333 253° West 430 495 40,000  Level Honolulu Center
01:16AM 22.6042 -153.4120 241° Southwest 445 512 40,000  Level FlightAware Transoceanic
01:16AM 22.7000 -153.3667 248° West 430 495 40,000  Level Honolulu Center
01:17AM 22.5450 -153.5300 241° Southwest 445 512 40,000  Level FlightAware Transoceanic
01:17AM 22.6667 -153.4833 253° West 440 506 40,000  Level Honolulu Center
01:18AM 22.6333 -153.6167 255° West 430 495 40,000  Level Honolulu Center
01:19AM 22.6000 -153.7333 253° West 430 495 40,000  Level Honolulu Center
01:20AM 22.5667 -153.8667 255° West 430 495 40,000  Level Honolulu Center
01:21AM 22.5167 -153.9833 245° Southwest 430 495 40,000  Level Honolulu Center
01:22AM 22.4833 -154.1167 255° West 440 506 40,000  Level Honolulu Center
01:23AM 22.4500 -154.2333 253° West 430 495 40,000  Level Honolulu Center
01:24AM 22.4167 -154.3667 255° West 440 506 40,000  Level Honolulu Center
01:25AM 22.3667 -154.4833 245° Southwest 430 495 40,000  Level Honolulu Center
01:26AM 22.3333 -154.6000 253° West 440 506 40,000  Level Honolulu Center
01:27AM 22.3000 -154.7333 255° West 440 506 40,000  Level Honolulu Center
01:28AM 22.2500 -154.8500 245° Southwest 440 506 40,000  Level Honolulu Center
01:29AM 22.2167 -154.9833 255° West 430 495 40,000  Level Honolulu Center
01:30AM 22.1833 -155.1000 253° West 430 495 40,000  Level Honolulu Center
01:31AM 22.1333 -155.2333 248° West 440 506 40,000  Level Honolulu Center
01:32AM 22.1000 -155.3500 253° West 440 506 40,000  Level Honolulu Center
01:33AM 22.0667 -155.4667 253° West 430 495 40,000  Level Honolulu Center
01:34AM 22.0167 -155.6000 248° West 440 506 40,000  Level Honolulu Center
01:35AM 21.9833 -155.7167 253° West 430 495 40,000 -660 Level Honolulu Center
01:36AM 21.9500 -155.8333 253° West 430 495 38,700 -1,380 Descending Honolulu Center
01:37AM 21.9000 -155.9667 248° West 430 495 37,300 -1,320 Descending Honolulu Center
01:38AM 21.8667 -156.0833 253° West 440 506 36,100 -1,380 Descending Honolulu Center
01:39AM 21.8333 -156.2167 255° West 440 506 34,600 -1,440 Descending Honolulu Center
01:40AM 21.7833 -156.3500 248° West 450 518 33,300 -1,320 Descending Honolulu Center
01:41AM 21.7500 -156.4667 253° West 460 529 32,000 -2,040 Descending Honolulu Center
01:42AM 21.7000 -156.6000 248° West 450 518 29,200 -3,000 Descending Honolulu Center
01:43AM 21.6500 -156.7500 250° West 450 518 26,000 -2,880 Descending Honolulu Center
01:44AM 21.6167 -156.8667 253° West 440 506 23,500 -2,520 Descending Honolulu Center
01:50AM 21.4380 -157.4740 253° West 348 400 10,400 -2,340 Descending FlightAware
01:50AM 21.4140 -157.5360 247° West 345 397 9,900 -600 Descending FlightAware
01:51AM 21.4040 -157.5590 245° Southwest 345 397 9,900  Level FlightAware
01:51AM 21.3880 -157.5990 247° West 312 359 9,900 -360 Level FlightAware
01:51AM 21.3750 -157.6300 246° West 295 339 9,600 -1,200 Descending FlightAware
01:52AM 21.3540 -157.6820 247° West 292 336 8,600 -840 Descending FlightAware
01:53AM 21.3370 -157.7250 247° West 292 336 8,600 -900 Level FlightAware
01:53AM 21.3360 -157.7260 223° Southwest 288 331 8,000 -780 Descending FlightAware
01:54AM 21.3080 -157.7960 247° West 271 312 7,900 -120 Descending FlightAware
01:54AM 21.2970 -157.8240 247° West 271 312 7,900  Level FlightAware
01:54AM 21.2860 -157.8520 247° West 271 312 7,900 -600 Level FlightAware
01:55AM 21.2560 -157.8930 232° Southwest 240 276 7,300 -1,020 Descending FlightAware
01:55AM 21.2470 -157.9020 223° Southwest 231 266 7,000 -1,800 Descending FlightAware
01:56AM 21.2260 -157.9240 224° Southwest 227 261 6,100 -1,980 Descending FlightAware
01:56AM 21.2020 -157.9470 222° Southwest 214 246 5,200 -1,800 Descending FlightAware